sensor_id;sensor_type;location;lat;lon;timestamp;temperature;humidity
20568;DHT22;10442;49.932;11.592;2024-02-21T00:00:14;10.60;68.10
20568;DHT22;10442;49.932;11.592;2024-02-21T00:02:42;10.60;68.10
20568;DHT22;10442;49.932;11.592;2024-02-21T00:05:10;10.60;68.00
20568;DHT22;10442;49.932;11.592;2024-02-21T00:07:37;10.50;67.80
20568;DHT22;10442;49.932;11.592;2024-02-21T00:10:05;10.60;67.80
20568;DHT22;10442;49.932;11.592;2024-02-21T00:12:34;10.50;67.80
20568;DHT22;10442;49.932;11.592;2024-02-21T00:15:02;10.60;67.90
20568;DHT22;10442;49.932;11.592;2024-02-21T00:17:30;10.60;67.80
20568;DHT22;10442;49.932;11.592;2024-02-21T00:19:57;10.60;67.70
20568;DHT22;10442;49.932;11.592;2024-02-21T00:22:25;10.60;67.70
20568;DHT22;10442;49.932;11.592;2024-02-21T00:24:55;10.50;67.90
20568;DHT22;10442;49.932;11.592;2024-02-21T00:27:23;10.50;68.10
20568;DHT22;10442;49.932;11.592;2024-02-21T00:29:51;10.60;68.30
20568;DHT22;10442;49.932;11.592;2024-02-21T00:32:18;10.50;68.20
20568;DHT22;10442;49.932;11.592;2024-02-21T00:34:47;10.50;68.00
20568;DHT22;10442;49.932;11.592;2024-02-21T00:37:15;10.50;68.10
20568;DHT22;10442;49.932;11.592;2024-02-21T00:39:42;10.50;68.20
20568;DHT22;10442;49.932;11.592;2024-02-21T00:42:10;10.50;68.20
20568;DHT22;10442;49.932;11.592;2024-02-21T00:44:37;10.50;68.10
20568;DHT22;10442;49.932;11.592;2024-02-21T00:47:04;10.50;68.10
20568;DHT22;10442;49.932;11.592;2024-02-21T00:49:32;10.50;68.10
20568;DHT22;10442;49.932;11.592;2024-02-21T00:52:00;10.50;68.00
20568;DHT22;10442;49.932;11.592;2024-02-21T00:54:27;10.50;68.10
20568;DHT22;10442;49.932;11.592;2024-02-21T00:57:06;10.50;68.10
20568;DHT22;10442;49.932;11.592;2024-02-21T00:59:33;10.50;68.10
20568;DHT22;10442;49.932;11.592;2024-02-21T01:02:00;10.50;68.00
20568;DHT22;10442;49.932;11.592;2024-02-21T01:04:28;10.50;68.20
20568;DHT22;10442;49.932;11.592;2024-02-21T01:06:56;10.50;68.20
20568;DHT22;10442;49.932;11.592;2024-02-21T01:09:24;10.50;68.10
20568;DHT22;10442;49.932;11.592;2024-02-21T01:11:51;10.50;68.10
20568;DHT22;10442;49.932;11.592;2024-02-21T01:14:19;10.50;68.20
20568;DHT22;10442;49.932;11.592;2024-02-21T01:16:46;10.50;68.10
20568;DHT22;10442;49.932;11.592;2024-02-21T01:19:14;10.40;68.00
20568;DHT22;10442;49.932;11.592;2024-02-21T01:21:42;10.50;68.10
20568;DHT22;10442;49.932;11.592;2024-02-21T01:24:09;10.50;68.00
20568;DHT22;10442;49.932;11.592;2024-02-21T01:26:38;10.40;68.00
20568;DHT22;10442;49.932;11.592;2024-02-21T01:29:05;10.40;68.00
20568;DHT22;10442;49.932;11.592;2024-02-21T01:31:32;10.40;67.90
20568;DHT22;10442;49.932;11.592;2024-02-21T01:34:00;10.40;68.10
20568;DHT22;10442;49.932;11.592;2024-02-21T01:36:27;10.50;68.20
20568;DHT22;10442;49.932;11.592;2024-02-21T01:38:55;10.50;68.20
20568;DHT22;10442;49.932;11.592;2024-02-21T01:41:22;10.40;68.00
20568;DHT22;10442;49.932;11.592;2024-02-21T01:43:50;10.40;68.10
20568;DHT22;10442;49.932;11.592;2024-02-21T01:46:18;10.40;68.10
20568;DHT22;10442;49.932;11.592;2024-02-21T01:48:46;10.40;68.20
20568;DHT22;10442;49.932;11.592;2024-02-21T01:51:15;10.40;68.20
20568;DHT22;10442;49.932;11.592;2024-02-21T01:53:44;10.40;68.30
20568;DHT22;10442;49.932;11.592;2024-02-21T01:56:13;10.30;68.30
20568;DHT22;10442;49.932;11.592;2024-02-21T01:58:42;10.40;68.50
20568;DHT22;10442;49.932;11.592;2024-02-21T02:01:10;10.30;68.50
20568;DHT22;10442;49.932;11.592;2024-02-21T02:03:38;10.30;68.60
20568;DHT22;10442;49.932;11.592;2024-02-21T02:06:06;10.30;68.70
20568;DHT22;10442;49.932;11.592;2024-02-21T02:08:35;10.30;68.70
20568;DHT22;10442;49.932;11.592;2024-02-21T02:11:03;10.30;68.80
20568;DHT22;10442;49.932;11.592;2024-02-21T02:13:31;10.30;68.80
20568;DHT22;10442;49.932;11.592;2024-02-21T02:15:58;10.30;68.90
20568;DHT22;10442;49.932;11.592;2024-02-21T02:18:26;10.30;68.90
20568;DHT22;10442;49.932;11.592;2024-02-21T02:20:53;10.20;68.90
20568;DHT22;10442;49.932;11.592;2024-02-21T02:23:31;10.30;69.00
20568;DHT22;10442;49.932;11.592;2024-02-21T02:25:59;10.30;69.10
20568;DHT22;10442;49.932;11.592;2024-02-21T02:28:28;10.30;69.10
20568;DHT22;10442;49.932;11.592;2024-02-21T02:30:56;10.30;69.30
20568;DHT22;10442;49.932;11.592;2024-02-21T02:33:23;10.30;69.40
20568;DHT22;10442;49.932;11.592;2024-02-21T02:35:51;10.30;69.30
20568;DHT22;10442;49.932;11.592;2024-02-21T02:38:19;10.30;69.40
20568;DHT22;10442;49.932;11.592;2024-02-21T02:40:47;10.30;69.50
20568;DHT22;10442;49.932;11.592;2024-02-21T02:43:15;10.20;69.30
20568;DHT22;10442;49.932;11.592;2024-02-21T02:45:43;10.30;69.50
20568;DHT22;10442;49.932;11.592;2024-02-21T02:48:10;10.30;69.50
20568;DHT22;10442;49.932;11.592;2024-02-21T02:50:38;10.30;69.60
20568;DHT22;10442;49.932;11.592;2024-02-21T02:53:06;10.30;69.50
20568;DHT22;10442;49.932;11.592;2024-02-21T02:55:34;10.30;69.60
20568;DHT22;10442;49.932;11.592;2024-02-21T02:58:03;10.30;69.50
20568;DHT22;10442;49.932;11.592;2024-02-21T03:00:30;10.30;69.50
20568;DHT22;10442;49.932;11.592;2024-02-21T03:02:58;10.30;69.50
20568;DHT22;10442;49.932;11.592;2024-02-21T03:05:25;10.30;69.50
20568;DHT22;10442;49.932;11.592;2024-02-21T03:07:53;10.30;69.50
20568;DHT22;10442;49.932;11.592;2024-02-21T03:10:21;10.30;69.50
20568;DHT22;10442;49.932;11.592;2024-02-21T03:12:48;10.40;69.50
20568;DHT22;10442;49.932;11.592;2024-02-21T03:15:16;10.30;69.50
20568;DHT22;10442;49.932;11.592;2024-02-21T03:17:44;10.40;69.60
20568;DHT22;10442;49.932;11.592;2024-02-21T03:20:11;10.40;69.60
20568;DHT22;10442;49.932;11.592;2024-02-21T03:22:40;10.40;69.60
20568;DHT22;10442;49.932;11.592;2024-02-21T03:25:09;10.40;69.70
20568;DHT22;10442;49.932;11.592;2024-02-21T03:27:37;10.40;69.70
20568;DHT22;10442;49.932;11.592;2024-02-21T03:30:05;10.40;69.70
20568;DHT22;10442;49.932;11.592;2024-02-21T03:32:32;10.40;69.70
20568;DHT22;10442;49.932;11.592;2024-02-21T03:35:01;10.40;69.70
20568;DHT22;10442;49.932;11.592;2024-02-21T03:37:28;10.40;69.80
20568;DHT22;10442;49.932;11.592;2024-02-21T03:39:56;10.40;69.70
20568;DHT22;10442;49.932;11.592;2024-02-21T03:42:23;10.40;69.70
20568;DHT22;10442;49.932;11.592;2024-02-21T03:44:52;10.40;69.70
20568;DHT22;10442;49.932;11.592;2024-02-21T03:47:21;10.40;69.90
20568;DHT22;10442;49.932;11.592;2024-02-21T03:49:50;10.50;69.80
20568;DHT22;10442;49.932;11.592;2024-02-21T03:52:17;10.50;69.80
20568;DHT22;10442;49.932;11.592;2024-02-21T03:54:45;10.50;69.90
20568;DHT22;10442;49.932;11.592;2024-02-21T03:57:13;10.50;69.90
20568;DHT22;10442;49.932;11.592;2024-02-21T03:59:41;10.50;69.90
20568;DHT22;10442;49.932;11.592;2024-02-21T04:02:11;10.50;69.80
20568;DHT22;10442;49.932;11.592;2024-02-21T04:04:45;10.40;69.70
20568;DHT22;10442;49.932;11.592;2024-02-21T04:07:16;10.40;69.90
20568;DHT22;10442;49.932;11.592;2024-02-21T04:09:44;10.40;69.80
20568;DHT22;10442;49.932;11.592;2024-02-21T04:12:12;10.40;69.90
20568;DHT22;10442;49.932;11.592;2024-02-21T04:14:40;10.40;70.00
20568;DHT22;10442;49.932;11.592;2024-02-21T04:17:11;10.40;70.20
20568;DHT22;10442;49.932;11.592;2024-02-21T04:19:38;10.40;70.20
20568;DHT22;10442;49.932;11.592;2024-02-21T04:22:06;10.40;70.40
20568;DHT22;10442;49.932;11.592;2024-02-21T04:24:33;10.40;70.60
20568;DHT22;10442;49.932;11.592;2024-02-21T04:27:00;10.40;70.70
20568;DHT22;10442;49.932;11.592;2024-02-21T04:29:28;10.40;70.90
20568;DHT22;10442;49.932;11.592;2024-02-21T04:31:55;10.40;70.90
20568;DHT22;10442;49.932;11.592;2024-02-21T04:34:24;10.40;70.90
20568;DHT22;10442;49.932;11.592;2024-02-21T04:36:51;10.40;71.10
20568;DHT22;10442;49.932;11.592;2024-02-21T04:39:19;10.40;71.20
20568;DHT22;10442;49.932;11.592;2024-02-21T04:41:46;10.40;71.30
20568;DHT22;10442;49.932;11.592;2024-02-21T04:44:14;10.40;71.40
20568;DHT22;10442;49.932;11.592;2024-02-21T04:46:43;10.40;71.30
20568;DHT22;10442;49.932;11.592;2024-02-21T04:49:11;10.40;71.40
20568;DHT22;10442;49.932;11.592;2024-02-21T04:51:40;10.40;71.40
20568;DHT22;10442;49.932;11.592;2024-02-21T04:54:08;10.40;71.40
20568;DHT22;10442;49.932;11.592;2024-02-21T04:56:36;10.40;71.60
20568;DHT22;10442;49.932;11.592;2024-02-21T04:59:04;10.30;71.60
20568;DHT22;10442;49.932;11.592;2024-02-21T05:01:31;10.30;71.60
20568;DHT22;10442;49.932;11.592;2024-02-21T05:03:59;10.30;71.60
20568;DHT22;10442;49.932;11.592;2024-02-21T05:06:26;10.30;71.60
20568;DHT22;10442;49.932;11.592;2024-02-21T05:08:55;10.30;71.60
20568;DHT22;10442;49.932;11.592;2024-02-21T05:11:22;10.30;71.70
20568;DHT22;10442;49.932;11.592;2024-02-21T05:13:50;10.30;71.80
20568;DHT22;10442;49.932;11.592;2024-02-21T05:16:18;10.30;72.60
20568;DHT22;10442;49.932;11.592;2024-02-21T05:18:46;10.30;71.70
20568;DHT22;10442;49.932;11.592;2024-02-21T05:21:14;10.30;71.60
20568;DHT22;10442;49.932;11.592;2024-02-21T05:23:42;10.30;71.60
20568;DHT22;10442;49.932;11.592;2024-02-21T05:26:09;10.30;71.70
20568;DHT22;10442;49.932;11.592;2024-02-21T05:28:36;10.20;71.60
20568;DHT22;10442;49.932;11.592;2024-02-21T05:31:04;10.20;71.60
20568;DHT22;10442;49.932;11.592;2024-02-21T05:33:32;10.20;71.70
20568;DHT22;10442;49.932;11.592;2024-02-21T05:36:00;10.20;71.60
20568;DHT22;10442;49.932;11.592;2024-02-21T05:38:29;10.20;71.70
20568;DHT22;10442;49.932;11.592;2024-02-21T05:40:58;10.20;71.70
20568;DHT22;10442;49.932;11.592;2024-02-21T05:43:26;10.20;71.50
20568;DHT22;10442;49.932;11.592;2024-02-21T05:45:54;10.20;71.30
20568;DHT22;10442;49.932;11.592;2024-02-21T05:48:22;10.20;71.40
20568;DHT22;10442;49.932;11.592;2024-02-21T05:50:50;10.20;71.40
20568;DHT22;10442;49.932;11.592;2024-02-21T05:53:18;10.20;71.50
20568;DHT22;10442;49.932;11.592;2024-02-21T05:55:46;10.20;71.60
20568;DHT22;10442;49.932;11.592;2024-02-21T05:58:14;10.10;71.60
20568;DHT22;10442;49.932;11.592;2024-02-21T06:00:42;10.10;71.70
20568;DHT22;10442;49.932;11.592;2024-02-21T06:03:10;10.10;71.70
20568;DHT22;10442;49.932;11.592;2024-02-21T06:05:38;10.10;71.70
20568;DHT22;10442;49.932;11.592;2024-02-21T06:08:06;10.10;71.70
20568;DHT22;10442;49.932;11.592;2024-02-21T06:10:34;10.10;71.70
20568;DHT22;10442;49.932;11.592;2024-02-21T06:13:03;10.10;71.60
20568;DHT22;10442;49.932;11.592;2024-02-21T06:15:30;10.10;71.80
20568;DHT22;10442;49.932;11.592;2024-02-21T06:17:59;10.10;71.80
20568;DHT22;10442;49.932;11.592;2024-02-21T06:20:27;10.20;72.00
20568;DHT22;10442;49.932;11.592;2024-02-21T06:22:54;10.10;71.90
20568;DHT22;10442;49.932;11.592;2024-02-21T06:25:22;10.10;71.80
20568;DHT22;10442;49.932;11.592;2024-02-21T06:27:49;10.10;71.80
20568;DHT22;10442;49.932;11.592;2024-02-21T06:30:18;10.10;71.70
20568;DHT22;10442;49.932;11.592;2024-02-21T06:32:45;10.10;71.60
20568;DHT22;10442;49.932;11.592;2024-02-21T06:35:13;10.10;71.70
20568;DHT22;10442;49.932;11.592;2024-02-21T06:37:41;10.10;71.70
20568;DHT22;10442;49.932;11.592;2024-02-21T06:40:09;10.10;71.70
20568;DHT22;10442;49.932;11.592;2024-02-21T06:42:36;10.10;71.70
20568;DHT22;10442;49.932;11.592;2024-02-21T06:45:04;10.00;71.60
20568;DHT22;10442;49.932;11.592;2024-02-21T06:47:33;10.10;71.70
20568;DHT22;10442;49.932;11.592;2024-02-21T06:50:04;10.10;71.80
20568;DHT22;10442;49.932;11.592;2024-02-21T06:52:33;10.10;71.80
20568;DHT22;10442;49.932;11.592;2024-02-21T06:55:00;10.10;71.80
20568;DHT22;10442;49.932;11.592;2024-02-21T06:57:31;10.10;71.80
20568;DHT22;10442;49.932;11.592;2024-02-21T06:59:59;10.10;71.90
20568;DHT22;10442;49.932;11.592;2024-02-21T07:02:27;10.20;71.90
20568;DHT22;10442;49.932;11.592;2024-02-21T07:04:54;10.20;72.00
20568;DHT22;10442;49.932;11.592;2024-02-21T07:07:22;10.20;71.90
20568;DHT22;10442;49.932;11.592;2024-02-21T07:09:50;10.30;72.00
20568;DHT22;10442;49.932;11.592;2024-02-21T07:12:18;10.30;72.00
20568;DHT22;10442;49.932;11.592;2024-02-21T07:14:46;10.30;72.00
20568;DHT22;10442;49.932;11.592;2024-02-21T07:17:14;10.30;72.00
20568;DHT22;10442;49.932;11.592;2024-02-21T07:19:41;10.30;72.10
20568;DHT22;10442;49.932;11.592;2024-02-21T07:22:10;10.30;71.90
20568;DHT22;10442;49.932;11.592;2024-02-21T07:24:38;10.40;72.10
20568;DHT22;10442;49.932;11.592;2024-02-21T07:27:05;10.40;71.90
20568;DHT22;10442;49.932;11.592;2024-02-21T07:29:33;10.40;71.90
20568;DHT22;10442;49.932;11.592;2024-02-21T07:32:02;10.50;72.00
20568;DHT22;10442;49.932;11.592;2024-02-21T07:34:31;10.50;72.00
20568;DHT22;10442;49.932;11.592;2024-02-21T07:36:59;10.50;71.80
20568;DHT22;10442;49.932;11.592;2024-02-21T07:39:26;10.60;71.80
20568;DHT22;10442;49.932;11.592;2024-02-21T07:41:54;10.60;71.60
20568;DHT22;10442;49.932;11.592;2024-02-21T07:44:21;10.70;71.60
20568;DHT22;10442;49.932;11.592;2024-02-21T07:46:49;10.70;71.60
20568;DHT22;10442;49.932;11.592;2024-02-21T07:49:16;10.70;71.50
20568;DHT22;10442;49.932;11.592;2024-02-21T07:51:44;10.80;71.40
20568;DHT22;10442;49.932;11.592;2024-02-21T07:54:12;10.80;71.30
20568;DHT22;10442;49.932;11.592;2024-02-21T07:56:43;10.80;71.10
20568;DHT22;10442;49.932;11.592;2024-02-21T07:59:11;10.90;71.10
20568;DHT22;10442;49.932;11.592;2024-02-21T08:01:41;10.90;70.90
20568;DHT22;10442;49.932;11.592;2024-02-21T08:04:09;10.90;70.90
20568;DHT22;10442;49.932;11.592;2024-02-21T08:06:37;10.90;71.00
20568;DHT22;10442;49.932;11.592;2024-02-21T08:09:05;10.90;70.80
20568;DHT22;10442;49.932;11.592;2024-02-21T08:11:32;10.90;70.80
20568;DHT22;10442;49.932;11.592;2024-02-21T08:14:00;10.90;70.80
20568;DHT22;10442;49.932;11.592;2024-02-21T08:16:28;11.00;70.90
20568;DHT22;10442;49.932;11.592;2024-02-21T08:18:56;11.00;70.80
20568;DHT22;10442;49.932;11.592;2024-02-21T08:21:26;11.00;70.70
20568;DHT22;10442;49.932;11.592;2024-02-21T08:23:54;11.10;70.60
20568;DHT22;10442;49.932;11.592;2024-02-21T08:26:23;11.10;69.80
20568;DHT22;10442;49.932;11.592;2024-02-21T08:28:51;11.10;70.60
20568;DHT22;10442;49.932;11.592;2024-02-21T08:31:20;11.20;70.50
20568;DHT22;10442;49.932;11.592;2024-02-21T08:33:48;11.20;70.20
20568;DHT22;10442;49.932;11.592;2024-02-21T08:36:20;11.30;70.20
20568;DHT22;10442;49.932;11.592;2024-02-21T08:38:48;11.40;69.60
20568;DHT22;10442;49.932;11.592;2024-02-21T08:41:15;11.30;69.50
20568;DHT22;10442;49.932;11.592;2024-02-21T08:43:45;11.40;69.40
20568;DHT22;10442;49.932;11.592;2024-02-21T08:46:14;11.40;69.50
20568;DHT22;10442;49.932;11.592;2024-02-21T08:48:42;11.50;69.50
20568;DHT22;10442;49.932;11.592;2024-02-21T08:51:10;11.50;69.20
20568;DHT22;10442;49.932;11.592;2024-02-21T08:53:38;11.60;69.10
20568;DHT22;10442;49.932;11.592;2024-02-21T08:56:06;11.60;69.00
20568;DHT22;10442;49.932;11.592;2024-02-21T08:58:36;11.60;68.90
20568;DHT22;10442;49.932;11.592;2024-02-21T09:01:04;11.60;68.50
20568;DHT22;10442;49.932;11.592;2024-02-21T09:03:34;11.70;68.50
20568;DHT22;10442;49.932;11.592;2024-02-21T09:06:01;11.80;68.60
20568;DHT22;10442;49.932;11.592;2024-02-21T09:08:29;11.80;68.30
20568;DHT22;10442;49.932;11.592;2024-02-21T09:10:57;11.80;68.30
20568;DHT22;10442;49.932;11.592;2024-02-21T09:13:25;11.80;68.20
20568;DHT22;10442;49.932;11.592;2024-02-21T09:15:52;11.90;68.30
20568;DHT22;10442;49.932;11.592;2024-02-21T09:18:20;11.80;68.10
20568;DHT22;10442;49.932;11.592;2024-02-21T09:20:47;11.90;68.10
20568;DHT22;10442;49.932;11.592;2024-02-21T09:23:16;11.90;68.10
20568;DHT22;10442;49.932;11.592;2024-02-21T09:25:45;12.00;68.20
20568;DHT22;10442;49.932;11.592;2024-02-21T09:28:14;12.00;68.10
20568;DHT22;10442;49.932;11.592;2024-02-21T09:30:43;12.00;68.10
20568;DHT22;10442;49.932;11.592;2024-02-21T09:33:11;12.00;68.20
20568;DHT22;10442;49.932;11.592;2024-02-21T09:35:50;12.10;67.40
20568;DHT22;10442;49.932;11.592;2024-02-21T09:38:20;12.10;67.40
20568;DHT22;10442;49.932;11.592;2024-02-21T09:40:59;12.20;67.50
20568;DHT22;10442;49.932;11.592;2024-02-21T09:43:29;12.30;67.40
20568;DHT22;10442;49.932;11.592;2024-02-21T09:45:58;12.30;67.60
20568;DHT22;10442;49.932;11.592;2024-02-21T09:48:42;12.40;67.60
20568;DHT22;10442;49.932;11.592;2024-02-21T09:51:14;12.50;66.90
20568;DHT22;10442;49.932;11.592;2024-02-21T09:53:43;12.70;67.30
20568;DHT22;10442;49.932;11.592;2024-02-21T09:56:25;12.80;66.80
20568;DHT22;10442;49.932;11.592;2024-02-21T09:58:53;12.90;66.50
20568;DHT22;10442;49.932;11.592;2024-02-21T10:01:20;13.00;65.40
20568;DHT22;10442;49.932;11.592;2024-02-21T10:04:01;13.10;65.10
20568;DHT22;10442;49.932;11.592;2024-02-21T10:06:30;13.20;65.00
20568;DHT22;10442;49.932;11.592;2024-02-21T10:08:58;13.30;64.90
20568;DHT22;10442;49.932;11.592;2024-02-21T10:11:28;13.30;64.60
20568;DHT22;10442;49.932;11.592;2024-02-21T10:14:07;13.30;64.40
20568;DHT22;10442;49.932;11.592;2024-02-21T10:16:36;13.40;64.20
20568;DHT22;10442;49.932;11.592;2024-02-21T10:19:05;13.40;64.50
20568;DHT22;10442;49.932;11.592;2024-02-21T10:21:34;13.50;64.10
20568;DHT22;10442;49.932;11.592;2024-02-21T10:24:03;13.50;63.90
20568;DHT22;10442;49.932;11.592;2024-02-21T10:26:32;13.60;63.70
20568;DHT22;10442;49.932;11.592;2024-02-21T10:29:01;13.60;63.60
20568;DHT22;10442;49.932;11.592;2024-02-21T10:31:29;13.70;63.70
20568;DHT22;10442;49.932;11.592;2024-02-21T10:33:59;13.80;63.60
20568;DHT22;10442;49.932;11.592;2024-02-21T10:36:28;13.80;62.20
20568;DHT22;10442;49.932;11.592;2024-02-21T10:38:56;14.00;62.00
20568;DHT22;10442;49.932;11.592;2024-02-21T10:41:24;14.00;62.30
20568;DHT22;10442;49.932;11.592;2024-02-21T10:43:53;14.10;61.10
20568;DHT22;10442;49.932;11.592;2024-02-21T10:46:24;14.10;61.60
20568;DHT22;10442;49.932;11.592;2024-02-21T10:49:04;14.10;61.90
20568;DHT22;10442;49.932;11.592;2024-02-21T10:51:37;14.20;61.60
20568;DHT22;10442;49.932;11.592;2024-02-21T10:57:05;14.30;61.20
20568;DHT22;10442;49.932;11.592;2024-02-21T10:59:35;14.30;60.80
20568;DHT22;10442;49.932;11.592;2024-02-21T11:02:04;14.30;60.80
20568;DHT22;10442;49.932;11.592;2024-02-21T11:04:34;14.30;60.30
20568;DHT22;10442;49.932;11.592;2024-02-21T11:07:07;14.40;60.90
20568;DHT22;10442;49.932;11.592;2024-02-21T11:09:38;14.40;60.80
20568;DHT22;10442;49.932;11.592;2024-02-21T11:12:06;14.40;60.30
20568;DHT22;10442;49.932;11.592;2024-02-21T11:14:34;14.40;60.10
20568;DHT22;10442;49.932;11.592;2024-02-21T11:17:18;14.50;60.70
20568;DHT22;10442;49.932;11.592;2024-02-21T11:19:46;14.50;59.70
20568;DHT22;10442;49.932;11.592;2024-02-21T11:22:16;14.50;59.30
20568;DHT22;10442;49.932;11.592;2024-02-21T11:24:45;14.60;59.20
20568;DHT22;10442;49.932;11.592;2024-02-21T11:29:48;14.60;59.30
20568;DHT22;10442;49.932;11.592;2024-02-21T11:32:19;14.70;58.70
20568;DHT22;10442;49.932;11.592;2024-02-21T11:34:57;14.70;59.20
20568;DHT22;10442;49.932;11.592;2024-02-21T11:37:32;14.70;59.30
20568;DHT22;10442;49.932;11.592;2024-02-21T11:40:01;14.80;59.20
20568;DHT22;10442;49.932;11.592;2024-02-21T11:42:30;14.90;59.40
20568;DHT22;10442;49.932;11.592;2024-02-21T11:45:00;15.00;59.10
20568;DHT22;10442;49.932;11.592;2024-02-21T11:47:29;15.10;59.00
20568;DHT22;10442;49.932;11.592;2024-02-21T11:49:57;15.20;58.90
20568;DHT22;10442;49.932;11.592;2024-02-21T11:52:25;15.20;58.00
20568;DHT22;10442;49.932;11.592;2024-02-21T11:54:55;15.30;58.00
20568;DHT22;10442;49.932;11.592;2024-02-21T11:57:32;15.30;58.10
20568;DHT22;10442;49.932;11.592;2024-02-21T12:00:17;15.40;57.30
20568;DHT22;10442;49.932;11.592;2024-02-21T12:02:45;15.40;57.00
20568;DHT22;10442;49.932;11.592;2024-02-21T12:05:14;15.50;57.00
20568;DHT22;10442;49.932;11.592;2024-02-21T12:07:42;15.40;55.60
20568;DHT22;10442;49.932;11.592;2024-02-21T12:10:11;15.40;55.50
20568;DHT22;10442;49.932;11.592;2024-02-21T12:12:40;15.40;55.20
20568;DHT22;10442;49.932;11.592;2024-02-21T12:15:09;15.40;55.00
20568;DHT22;10442;49.932;11.592;2024-02-21T12:17:39;15.50;55.30
20568;DHT22;10442;49.932;11.592;2024-02-21T12:20:08;15.50;54.80
20568;DHT22;10442;49.932;11.592;2024-02-21T12:22:38;15.40;55.40
20568;DHT22;10442;49.932;11.592;2024-02-21T12:25:22;15.40;55.10
20568;DHT22;10442;49.932;11.592;2024-02-21T12:27:52;15.40;55.10
20568;DHT22;10442;49.932;11.592;2024-02-21T12:30:20;15.40;55.10
20568;DHT22;10442;49.932;11.592;2024-02-21T12:32:48;15.50;55.50
20568;DHT22;10442;49.932;11.592;2024-02-21T12:35:17;15.50;55.50
20568;DHT22;10442;49.932;11.592;2024-02-21T12:37:45;15.50;54.90
20568;DHT22;10442;49.932;11.592;2024-02-21T12:40:13;15.60;54.80
20568;DHT22;10442;49.932;11.592;2024-02-21T12:42:42;15.60;54.80
20568;DHT22;10442;49.932;11.592;2024-02-21T12:45:11;15.70;55.00
20568;DHT22;10442;49.932;11.592;2024-02-21T12:47:39;15.60;54.60
20568;DHT22;10442;49.932;11.592;2024-02-21T12:50:07;15.60;54.10
20568;DHT22;10442;49.932;11.592;2024-02-21T12:52:35;15.60;54.20
20568;DHT22;10442;49.932;11.592;2024-02-21T12:55:03;15.50;54.00
20568;DHT22;10442;49.932;11.592;2024-02-21T12:57:30;15.50;54.20
20568;DHT22;10442;49.932;11.592;2024-02-21T12:59:58;15.50;53.80
20568;DHT22;10442;49.932;11.592;2024-02-21T13:02:25;15.50;54.10
20568;DHT22;10442;49.932;11.592;2024-02-21T13:04:53;15.40;54.00
20568;DHT22;10442;49.932;11.592;2024-02-21T13:07:20;15.40;53.40
20568;DHT22;10442;49.932;11.592;2024-02-21T13:09:48;15.30;53.90
20568;DHT22;10442;49.932;11.592;2024-02-21T13:12:16;15.30;53.90
20568;DHT22;10442;49.932;11.592;2024-02-21T13:14:44;15.30;53.90
20568;DHT22;10442;49.932;11.592;2024-02-21T13:17:11;15.20;53.60
20568;DHT22;10442;49.932;11.592;2024-02-21T13:19:39;15.20;54.00
20568;DHT22;10442;49.932;11.592;2024-02-21T13:22:07;15.20;54.10
20568;DHT22;10442;49.932;11.592;2024-02-21T13:24:35;15.30;54.30
20568;DHT22;10442;49.932;11.592;2024-02-21T13:27:02;15.30;54.40
20568;DHT22;10442;49.932;11.592;2024-02-21T13:29:31;15.30;54.50
20568;DHT22;10442;49.932;11.592;2024-02-21T13:32:00;15.30;54.50
20568;DHT22;10442;49.932;11.592;2024-02-21T13:34:28;15.30;54.40
20568;DHT22;10442;49.932;11.592;2024-02-21T13:36:57;15.30;54.30
20568;DHT22;10442;49.932;11.592;2024-02-21T13:39:24;15.30;54.30
20568;DHT22;10442;49.932;11.592;2024-02-21T13:41:52;15.30;54.10
20568;DHT22;10442;49.932;11.592;2024-02-21T13:44:19;15.20;53.60
20568;DHT22;10442;49.932;11.592;2024-02-21T13:46:50;15.20;53.40
20568;DHT22;10442;49.932;11.592;2024-02-21T13:49:18;15.20;53.50
20568;DHT22;10442;49.932;11.592;2024-02-21T13:51:54;15.20;53.60
20568;DHT22;10442;49.932;11.592;2024-02-21T13:54:23;15.10;53.60
20568;DHT22;10442;49.932;11.592;2024-02-21T13:56:55;15.20;53.60
20568;DHT22;10442;49.932;11.592;2024-02-21T13:59:25;15.10;53.30
20568;DHT22;10442;49.932;11.592;2024-02-21T14:01:55;15.20;53.30
20568;DHT22;10442;49.932;11.592;2024-02-21T14:04:25;15.10;52.90
20568;DHT22;10442;49.932;11.592;2024-02-21T14:06:53;15.10;53.20
20568;DHT22;10442;49.932;11.592;2024-02-21T14:09:21;15.20;53.20
20568;DHT22;10442;49.932;11.592;2024-02-21T14:11:50;15.20;53.20
20568;DHT22;10442;49.932;11.592;2024-02-21T14:14:17;15.20;53.60
20568;DHT22;10442;49.932;11.592;2024-02-21T14:16:45;15.10;53.20
20568;DHT22;10442;49.932;11.592;2024-02-21T14:19:16;15.10;52.90
20568;DHT22;10442;49.932;11.592;2024-02-21T14:21:44;15.10;52.90
20568;DHT22;10442;49.932;11.592;2024-02-21T14:24:13;15.10;52.70
20568;DHT22;10442;49.932;11.592;2024-02-21T14:26:41;15.10;53.10
20568;DHT22;10442;49.932;11.592;2024-02-21T14:29:09;15.00;52.90
20568;DHT22;10442;49.932;11.592;2024-02-21T14:31:38;15.00;52.90
20568;DHT22;10442;49.932;11.592;2024-02-21T14:34:05;15.00;52.90
20568;DHT22;10442;49.932;11.592;2024-02-21T14:36:35;14.90;52.10
20568;DHT22;10442;49.932;11.592;2024-02-21T14:39:02;14.90;52.00
20568;DHT22;10442;49.932;11.592;2024-02-21T14:41:32;14.90;51.90
20568;DHT22;10442;49.932;11.592;2024-02-21T14:44:00;14.80;52.30
20568;DHT22;10442;49.932;11.592;2024-02-21T14:46:32;14.80;52.10
20568;DHT22;10442;49.932;11.592;2024-02-21T14:49:00;14.80;52.20
20568;DHT22;10442;49.932;11.592;2024-02-21T14:51:27;14.90;52.40
20568;DHT22;10442;49.932;11.592;2024-02-21T14:53:56;14.80;52.70
20568;DHT22;10442;49.932;11.592;2024-02-21T14:56:24;14.80;52.80
20568;DHT22;10442;49.932;11.592;2024-02-21T14:58:53;14.80;52.50
20568;DHT22;10442;49.932;11.592;2024-02-21T15:01:25;14.80;52.60
20568;DHT22;10442;49.932;11.592;2024-02-21T15:03:52;14.80;52.50
20568;DHT22;10442;49.932;11.592;2024-02-21T15:06:21;14.80;52.20
20568;DHT22;10442;49.932;11.592;2024-02-21T15:08:50;14.80;52.40
20568;DHT22;10442;49.932;11.592;2024-02-21T15:11:17;14.70;52.20
20568;DHT22;10442;49.932;11.592;2024-02-21T15:13:45;14.70;52.40
20568;DHT22;10442;49.932;11.592;2024-02-21T15:16:13;14.70;52.60
20568;DHT22;10442;49.932;11.592;2024-02-21T15:18:41;14.60;52.50
20568;DHT22;10442;49.932;11.592;2024-02-21T15:21:11;14.60;52.70
20568;DHT22;10442;49.932;11.592;2024-02-21T15:23:44;14.60;52.90
20568;DHT22;10442;49.932;11.592;2024-02-21T15:26:12;14.60;53.10
20568;DHT22;10442;49.932;11.592;2024-02-21T15:28:41;14.50;53.30